sensor_id;sensor_type;location;lat;lon;timestamp;pressure;altitude;pressure_sealevel;temperature;humidity
38630;BME280;24384;51.988;4.644;2023-03-03T00:02:19;102708.13;;;2.75;76.64
38630;BME280;24384;51.988;4.644;2023-03-03T00:04:44;102700.16;;;2.71;77.31
38630;BME280;24384;51.988;4.644;2023-03-03T00:07:10;102691.75;;;2.81;76.75
38630;BME280;24384;51.988;4.644;2023-03-03T00:09:35;102702.81;;;2.72;76.84
38630;BME280;24384;51.988;4.644;2023-03-03T00:12:00;102702.53;;;2.63;77.51
38630;BME280;24384;51.988;4.644;2023-03-03T00:14:35;102690.69;;;2.74;77.26
38630;BME280;24384;51.988;4.644;2023-03-03T00:17:00;102704.38;;;2.67;77.54
38630;BME280;24384;51.988;4.644;2023-03-03T00:19:37;102705.84;;;2.57;78.70
38630;BME280;24384;51.988;4.644;2023-03-03T00:22:06;102705.16;;;2.63;78.60
38630;BME280;24384;51.988;4.644;2023-03-03T00:24:39;102703.41;;;2.63;78.97
38630;BME280;24384;51.988;4.644;2023-03-03T00:29:49;102705.25;;;2.66;79.40
38630;BME280;24384;51.988;4.644;2023-03-03T00:32:20;102712.16;;;2.65;79.16
38630;BME280;24384;51.988;4.644;2023-03-03T00:34:46;102704.09;;;2.86;78.04
38630;BME280;24384;51.988;4.644;2023-03-03T00:39:46;102710.91;;;2.81;78.99
38630;BME280;24384;51.988;4.644;2023-03-03T00:42:15;102698.53;;;2.74;78.92
38630;BME280;24384;51.988;4.644;2023-03-03T00:44:41;102701.31;;;2.80;78.07
38630;BME280;24384;51.988;4.644;2023-03-03T00:47:13;102709.84;;;2.76;79.79
38630;BME280;24384;51.988;4.644;2023-03-03T00:49:44;102706.34;;;2.74;79.56
38630;BME280;24384;51.988;4.644;2023-03-03T00:52:11;102704.47;;;2.70;79.44
38630;BME280;24384;51.988;4.644;2023-03-03T00:54:37;102710.50;;;2.67;78.95
38630;BME280;24384;51.988;4.644;2023-03-03T00:57:02;102702.41;;;2.58;79.85
38630;BME280;24384;51.988;4.644;2023-03-03T00:59:28;102701.91;;;2.72;80.26
38630;BME280;24384;51.988;4.644;2023-03-03T01:01:53;102706.06;;;2.65;79.82
38630;BME280;24384;51.988;4.644;2023-03-03T01:04:18;102701.44;;;2.56;79.72
38630;BME280;24384;51.988;4.644;2023-03-03T01:06:44;102699.00;;;2.61;79.88
38630;BME280;24384;51.988;4.644;2023-03-03T01:09:11;102696.00;;;2.77;79.81
38630;BME280;24384;51.988;4.644;2023-03-03T01:11:36;102706.06;;;2.65;80.50
38630;BME280;24384;51.988;4.644;2023-03-03T01:14:02;102702.63;;;2.66;80.18
38630;BME280;24384;51.988;4.644;2023-03-03T01:16:27;102703.66;;;2.71;80.61
38630;BME280;24384;51.988;4.644;2023-03-03T01:18:52;102703.56;;;2.68;80.42
38630;BME280;24384;51.988;4.644;2023-03-03T01:21:17;102706.75;;;2.59;80.79
38630;BME280;24384;51.988;4.644;2023-03-03T01:23:42;102713.19;;;2.71;80.99
38630;BME280;24384;51.988;4.644;2023-03-03T01:26:08;102710.19;;;2.57;81.54
38630;BME280;24384;51.988;4.644;2023-03-03T01:28:33;102692.94;;;2.62;80.66
38630;BME280;24384;51.988;4.644;2023-03-03T01:30:59;102704.78;;;2.81;79.99
38630;BME280;24384;51.988;4.644;2023-03-03T01:33:25;102699.69;;;2.85;80.05
38630;BME280;24384;51.988;4.644;2023-03-03T01:35:52;102709.00;;;2.76;80.64
38630;BME280;24384;51.988;4.644;2023-03-03T01:38:17;102707.94;;;2.69;81.00
38630;BME280;24384;51.988;4.644;2023-03-03T01:40:42;102708.16;;;2.77;81.27
38630;BME280;24384;51.988;4.644;2023-03-03T01:43:07;102714.28;;;2.79;81.16
38630;BME280;24384;51.988;4.644;2023-03-03T01:51:01;102705.50;;;2.75;81.02
38630;BME280;24384;51.988;4.644;2023-03-03T01:53:35;102705.88;;;2.59;81.02
38630;BME280;24384;51.988;4.644;2023-03-03T01:56:03;102705.84;;;2.57;82.05
38630;BME280;24384;51.988;4.644;2023-03-03T01:58:30;102702.19;;;2.50;81.36
38630;BME280;24384;51.988;4.644;2023-03-03T02:00:58;102709.91;;;2.47;82.20
38630;BME280;24384;51.988;4.644;2023-03-03T02:03:25;102717.53;;;2.41;81.70
38630;BME280;24384;51.988;4.644;2023-03-03T02:05:52;102714.09;;;2.44;81.51
38630;BME280;24384;51.988;4.644;2023-03-03T02:08:20;102711.59;;;2.47;81.96
38630;BME280;24384;51.988;4.644;2023-03-03T02:10:46;102707.97;;;2.42;82.18
38630;BME280;24384;51.988;4.644;2023-03-03T02:13:12;102708.84;;;2.42;81.85
38630;BME280;24384;51.988;4.644;2023-03-03T02:15:37;102703.34;;;2.33;81.59
38630;BME280;24384;51.988;4.644;2023-03-03T02:18:09;102710.94;;;2.25;80.35
38630;BME280;24384;51.988;4.644;2023-03-03T02:23:34;102712.50;;;1.93;79.69
38630;BME280;24384;51.988;4.644;2023-03-03T02:26:04;102715.56;;;2.07;79.30
38630;BME280;24384;51.988;4.644;2023-03-03T02:28:31;102712.59;;;1.96;79.94
38630;BME280;24384;51.988;4.644;2023-03-03T02:30:57;102704.59;;;1.90;80.34
38630;BME280;24384;51.988;4.644;2023-03-03T02:33:22;102708.31;;;1.96;80.43
38630;BME280;24384;51.988;4.644;2023-03-03T02:35:47;102711.84;;;1.99;80.28
38630;BME280;24384;51.988;4.644;2023-03-03T02:38:15;102706.19;;;1.85;80.67
38630;BME280;24384;51.988;4.644;2023-03-03T02:40:48;102707.00;;;1.84;81.20
38630;BME280;24384;51.988;4.644;2023-03-03T02:43:15;102702.66;;;1.83;81.12
38630;BME280;24384;51.988;4.644;2023-03-03T02:45:42;102704.81;;;1.96;80.22
38630;BME280;24384;51.988;4.644;2023-03-03T02:48:08;102703.31;;;2.03;80.01
38630;BME280;24384;51.988;4.644;2023-03-03T02:50:33;102703.94;;;1.95;80.99
38630;BME280;24384;51.988;4.644;2023-03-03T02:52:58;102703.78;;;1.91;82.09
38630;BME280;24384;51.988;4.644;2023-03-03T02:55:23;102700.78;;;2.06;81.10
38630;BME280;24384;51.988;4.644;2023-03-03T02:57:48;102704.06;;;2.00;81.76
38630;BME280;24384;51.988;4.644;2023-03-03T03:00:14;102698.72;;;1.95;82.07
38630;BME280;24384;51.988;4.644;2023-03-03T03:02:39;102699.06;;;2.06;81.81
38630;BME280;24384;51.988;4.644;2023-03-03T03:05:04;102703.66;;;2.13;82.20
38630;BME280;24384;51.988;4.644;2023-03-03T03:07:29;102705.78;;;2.27;81.82
38630;BME280;24384;51.988;4.644;2023-03-03T03:09:54;102705.31;;;2.40;81.96
38630;BME280;24384;51.988;4.644;2023-03-03T03:12:21;102709.13;;;2.51;82.21
38630;BME280;24384;51.988;4.644;2023-03-03T03:14:46;102705.09;;;2.61;83.13
38630;BME280;24384;51.988;4.644;2023-03-03T03:17:12;102701.59;;;2.61;82.37
38630;BME280;24384;51.988;4.644;2023-03-03T03:19:37;102701.63;;;2.62;82.97
38630;BME280;24384;51.988;4.644;2023-03-03T03:22:02;102706.03;;;2.63;83.01
38630;BME280;24384;51.988;4.644;2023-03-03T03:24:27;102706.03;;;2.63;83.30
38630;BME280;24384;51.988;4.644;2023-03-03T03:26:52;102706.16;;;2.68;84.64
38630;BME280;24384;51.988;4.644;2023-03-03T03:29:18;102703.66;;;2.71;84.68
38630;BME280;24384;51.988;4.644;2023-03-03T03:31:43;102711.47;;;2.71;84.66
38630;BME280;24384;51.988;4.644;2023-03-03T03:34:08;102714.28;;;2.79;85.23
38630;BME280;24384;51.988;4.644;2023-03-03T03:36:33;102710.44;;;2.66;83.96
38630;BME280;24384;51.988;4.644;2023-03-03T03:38:58;102718.31;;;2.67;84.61
38630;BME280;24384;51.988;4.644;2023-03-03T03:41:26;102719.22;;;2.69;84.06
38630;BME280;24384;51.988;4.644;2023-03-03T03:43:51;102716.25;;;2.57;84.13
38630;BME280;24384;51.988;4.644;2023-03-03T03:46:17;102716.22;;;2.56;83.66
38630;BME280;24384;51.988;4.644;2023-03-03T03:48:42;102724.03;;;2.56;84.30
38630;BME280;24384;51.988;4.644;2023-03-03T03:51:08;102710.25;;;2.60;84.93
38630;BME280;24384;51.988;4.644;2023-03-03T03:53:33;102711.81;;;2.55;84.35
38630;BME280;24384;51.988;4.644;2023-03-03T03:55:59;102715.53;;;2.61;84.12
38630;BME280;24384;51.988;4.644;2023-03-03T03:58:24;102714.53;;;2.58;84.40
38630;BME280;24384;51.988;4.644;2023-03-03T04:00:49;102719.59;;;2.53;84.23
38630;BME280;24384;51.988;4.644;2023-03-03T04:03:15;102723.94;;;2.53;84.44
38630;BME280;24384;51.988;4.644;2023-03-03T04:05:41;102727.47;;;2.55;84.73
38630;BME280;24384;51.988;4.644;2023-03-03T04:08:07;102716.91;;;2.50;85.72
38630;BME280;24384;51.988;4.644;2023-03-03T04:10:33;102725.16;;;2.35;85.42
38630;BME280;24384;51.988;4.644;2023-03-03T04:12:58;102729.59;;;2.39;85.33
38630;BME280;24384;51.988;4.644;2023-03-03T04:15:24;102727.94;;;2.41;85.48
38630;BME280;24384;51.988;4.644;2023-03-03T04:17:49;102732.25;;;2.41;86.31
38630;BME280;24384;51.988;4.644;2023-03-03T04:20:14;102732.19;;;2.39;85.48
38630;BME280;24384;51.988;4.644;2023-03-03T04:22:40;102732.19;;;2.39;85.08
38630;BME280;24384;51.988;4.644;2023-03-03T04:25:05;102741.09;;;2.46;85.79
38630;BME280;24384;51.988;4.644;2023-03-03T04:27:31;102738.44;;;2.44;85.79
38630;BME280;24384;51.988;4.644;2023-03-03T04:29:57;102730.53;;;2.41;86.45
38630;BME280;24384;51.988;4.644;2023-03-03T04:32:24;102737.69;;;2.48;85.71
38630;BME280;24384;51.988;4.644;2023-03-03T04:34:49;102737.69;;;2.48;85.39
38630;BME280;24384;51.988;4.644;2023-03-03T04:37:15;102735.94;;;2.47;85.88
38630;BME280;24384;51.988;4.644;2023-03-03T04:39:40;102731.47;;;2.43;87.24
38630;BME280;24384;51.988;4.644;2023-03-03T04:42:05;102738.44;;;2.44;85.92
38630;BME280;24384;51.988;4.644;2023-03-03T04:44:30;102742.63;;;2.39;85.80
38630;BME280;24384;51.988;4.644;2023-03-03T04:46:55;102736.56;;;2.40;86.56
38630;BME280;24384;51.988;4.644;2023-03-03T04:49:24;102752.09;;;2.37;86.81
38630;BME280;24384;51.988;4.644;2023-03-03T04:51:49;102746.47;;;2.50;87.45
38630;BME280;24384;51.988;4.644;2023-03-03T04:54:14;102747.19;;;2.46;86.85
38630;BME280;24384;51.988;4.644;2023-03-03T04:56:39;102740.38;;;2.51;86.92
38630;BME280;24384;51.988;4.644;2023-03-03T04:59:05;102742.84;;;2.47;87.45
38630;BME280;24384;51.988;4.644;2023-03-03T05:01:30;102743.03;;;2.53;87.23
38630;BME280;24384;51.988;4.644;2023-03-03T05:03:55;102743.09;;;2.55;86.59
38630;BME280;24384;51.988;4.644;2023-03-03T05:06:20;102745.75;;;2.56;86.84
38630;BME280;24384;51.988;4.644;2023-03-03T05:08:45;102747.19;;;2.46;86.58
38630;BME280;24384;51.988;4.644;2023-03-03T05:11:11;102756.72;;;2.46;87.44
38630;BME280;24384;51.988;4.644;2023-03-03T05:13:36;102757.59;;;2.46;87.00
38630;BME280;24384;51.988;4.644;2023-03-03T05:16:01;102751.94;;;2.60;86.23
38630;BME280;24384;51.988;4.644;2023-03-03T05:18:26;102747.34;;;2.51;86.55
38630;BME280;24384;51.988;4.644;2023-03-03T05:20:52;102750.13;;;2.57;87.29
38630;BME280;24384;51.988;4.644;2023-03-03T05:23:17;102752.88;;;2.62;86.38
38630;BME280;24384;51.988;4.644;2023-03-03T05:25:43;102746.75;;;2.60;87.29
38630;BME280;24384;51.988;4.644;2023-03-03T05:28:09;102752.13;;;2.66;87.17
38630;BME280;24384;51.988;4.644;2023-03-03T05:30:35;102744.31;;;2.66;87.00
38630;BME280;24384;51.988;4.644;2023-03-03T05:33:00;102747.09;;;2.72;86.70
38630;BME280;24384;51.988;4.644;2023-03-03T05:35:26;102746.38;;;2.78;87.13
38630;BME280;24384;51.988;4.644;2023-03-03T05:37:51;102747.25;;;2.77;87.52
38630;BME280;24384;51.988;4.644;2023-03-03T05:40:17;102744.69;;;2.78;87.34
38630;BME280;24384;51.988;4.644;2023-03-03T05:42:42;102754.25;;;2.79;87.45
38630;BME280;24384;51.988;4.644;2023-03-03T05:45:07;102755.25;;;2.83;87.31
38630;BME280;24384;51.988;4.644;2023-03-03T05:47:33;102750.94;;;2.85;88.65
38630;BME280;24384;51.988;4.644;2023-03-03T05:49:58;102751.00;;;2.86;87.48
38630;BME280;24384;51.988;4.644;2023-03-03T05:52:24;102746.06;;;2.96;88.00
38630;BME280;24384;51.988;4.644;2023-03-03T05:54:50;102745.41;;;3.03;87.69
38630;BME280;24384;51.988;4.644;2023-03-03T05:57:15;102749.97;;;3.12;87.35
38630;BME280;24384;51.988;4.644;2023-03-03T05:59:40;102753.25;;;3.04;88.03
38630;BME280;24384;51.988;4.644;2023-03-03T06:02:05;102751.66;;;3.10;87.35
38630;BME280;24384;51.988;4.644;2023-03-03T06:04:30;102750.66;;;3.04;87.77
38630;BME280;24384;51.988;4.644;2023-03-03T06:06:56;102753.50;;;3.12;86.97
38630;BME280;24384;51.988;4.644;2023-03-03T06:09:22;102751.88;;;3.17;87.30
38630;BME280;24384;51.988;4.644;2023-03-03T06:11:47;102755.09;;;3.09;87.37
38630;BME280;24384;51.988;4.644;2023-03-03T06:14:14;102753.09;;;2.98;86.47
38630;BME280;24384;51.988;4.644;2023-03-03T06:16:39;102758.34;;;3.00;87.19
38630;BME280;24384;51.988;4.644;2023-03-03T06:19:05;102764.13;;;2.90;86.43
38630;BME280;24384;51.988;4.644;2023-03-03T06:21:30;102755.47;;;2.91;87.78
38630;BME280;24384;51.988;4.644;2023-03-03T06:23:55;102768.72;;;2.98;86.76
38630;BME280;24384;51.988;4.644;2023-03-03T06:26:20;102768.25;;;3.13;85.35
38630;BME280;24384;51.988;4.644;2023-03-03T06:28:46;102767.13;;;3.03;85.34
38630;BME280;24384;51.988;4.644;2023-03-03T06:31:12;102770.53;;;3.01;85.46
38630;BME280;24384;51.988;4.644;2023-03-03T06:33:37;102771.94;;;2.90;86.49
38630;BME280;24384;51.988;4.644;2023-03-03T06:36:02;102769.56;;;2.97;85.89
38630;BME280;24384;51.988;4.644;2023-03-03T06:38:28;102778.97;;;2.92;86.13
38630;BME280;24384;51.988;4.644;2023-03-03T06:40:53;102775.41;;;2.90;86.37
38630;BME280;24384;51.988;4.644;2023-03-03T06:43:18;102785.66;;;2.84;86.04
38630;BME280;24384;51.988;4.644;2023-03-03T06:45:44;102783.09;;;2.85;87.18
38630;BME280;24384;51.988;4.644;2023-03-03T06:48:09;102784.75;;;2.82;87.06
38630;BME280;24384;51.988;4.644;2023-03-03T06:50:34;102792.78;;;2.90;86.36
38630;BME280;24384;51.988;4.644;2023-03-03T06:53:01;102788.41;;;2.89;86.96
38630;BME280;24384;51.988;4.644;2023-03-03T06:55:29;102802.16;;;2.83;88.05
38630;BME280;24384;51.988;4.644;2023-03-03T06:57:54;102800.38;;;2.82;88.79
38630;BME280;24384;51.988;4.644;2023-03-03T07:00:23;102798.09;;;2.93;89.06
38630;BME280;24384;51.988;4.644;2023-03-03T07:02:59;102803.63;;;3.03;89.53
38630;BME280;24384;51.988;4.644;2023-03-03T07:05:26;102805.72;;;3.15;89.70
38630;BME280;24384;51.988;4.644;2023-03-03T07:07:53;102793.03;;;3.28;89.13
38630;BME280;24384;51.988;4.644;2023-03-03T07:10:29;102809.34;;;3.20;87.98
38630;BME280;24384;51.988;4.644;2023-03-03T07:12:55;102815.56;;;3.26;88.79
38630;BME280;24384;51.988;4.644;2023-03-03T07:15:23;102812.06;;;3.25;88.12
38630;BME280;24384;51.988;4.644;2023-03-03T07:17:50;102819.38;;;3.37;88.42
38630;BME280;24384;51.988;4.644;2023-03-03T07:20:18;102807.22;;;3.37;88.42
38630;BME280;24384;51.988;4.644;2023-03-03T07:22:43;102815.09;;;3.39;87.30
38630;BME280;24384;51.988;4.644;2023-03-03T07:25:17;102816.63;;;3.32;88.02
38630;BME280;24384;51.988;4.644;2023-03-03T07:27:43;102815.22;;;3.44;87.57
38630;BME280;24384;51.988;4.644;2023-03-03T07:30:27;102823.16;;;3.48;88.02
38630;BME280;24384;51.988;4.644;2023-03-03T07:32:53;102827.69;;;3.54;89.25
38630;BME280;24384;51.988;4.644;2023-03-03T07:37:48;102827.69;;;3.54;87.62
38630;BME280;24384;51.988;4.644;2023-03-03T07:42:45;102831.53;;;3.68;86.03
38630;BME280;24384;51.988;4.644;2023-03-03T07:45:20;102826.16;;;3.62;86.43
38630;BME280;24384;51.988;4.644;2023-03-03T07:47:47;102832.34;;;3.66;85.42
38630;BME280;24384;51.988;4.644;2023-03-03T07:50:14;102834.78;;;3.59;87.24
38630;BME280;24384;51.988;4.644;2023-03-03T07:52:42;102834.25;;;3.71;85.88
38630;BME280;24384;51.988;4.644;2023-03-03T07:57:52;102836.06;;;3.74;87.63
38630;BME280;24384;51.988;4.644;2023-03-03T08:03:25;102845.06;;;3.85;86.82
38630;BME280;24384;51.988;4.644;2023-03-03T08:05:35;102838.09;;;3.86;87.05
38630;BME280;24384;51.988;4.644;2023-03-03T08:08:09;102853.88;;;3.90;86.97
38630;BME280;24384;51.988;4.644;2023-03-03T08:10:42;102853.91;;;3.92;87.47
38630;BME280;24384;51.988;4.644;2023-03-03T08:13:13;102863.69;;;3.99;86.51
38630;BME280;24384;51.988;4.644;2023-03-03T08:15:39;102856.94;;;4.07;86.40
38630;BME280;24384;51.988;4.644;2023-03-03T08:18:13;102867.19;;;4.00;85.63
38630;BME280;24384;51.988;4.644;2023-03-03T08:20:49;102872.47;;;4.03;85.97
38630;BME280;24384;51.988;4.644;2023-03-03T08:23:15;102875.19;;;4.06;86.54
38630;BME280;24384;51.988;4.644;2023-03-03T08:25:41;102869.97;;;4.06;86.63
38630;BME280;24384;51.988;4.644;2023-03-03T08:28:08;102878.16;;;4.20;86.61
38630;BME280;24384;51.988;4.644;2023-03-03T08:30:33;102880.72;;;4.18;86.50
38630;BME280;24384;51.988;4.644;2023-03-03T08:32:58;102884.16;;;4.16;85.97
38630;BME280;24384;51.988;4.644;2023-03-03T08:35:25;102880.69;;;4.17;85.50
38630;BME280;24384;51.988;4.644;2023-03-03T08:37:50;102876.56;;;4.25;85.47
38630;BME280;24384;51.988;4.644;2023-03-03T08:40:15;102884.69;;;4.36;84.60
38630;BME280;24384;51.988;4.644;2023-03-03T08:42:40;102880.06;;;4.25;85.80
38630;BME280;24384;51.988;4.644;2023-03-03T08:45:05;102884.91;;;4.45;85.42
38630;BME280;24384;51.988;4.644;2023-03-03T08:47:31;102885.81;;;4.47;85.42
38630;BME280;24384;51.988;4.644;2023-03-03T08:49:57;102885.28;;;4.60;84.94
38630;BME280;24384;51.988;4.644;2023-03-03T08:52:22;102883.50;;;4.59;84.88
38630;BME280;24384;51.988;4.644;2023-03-03T08:54:48;102885.38;;;4.63;83.91
38630;BME280;24384;51.988;4.644;2023-03-03T08:57:13;102883.84;;;4.73;84.24
38630;BME280;24384;51.988;4.644;2023-03-03T08:59:38;102890.31;;;4.89;83.55
38630;BME280;24384;51.988;4.644;2023-03-03T09:02:06;102894.06;;;5.00;83.01
38630;BME280;24384;51.988;4.644;2023-03-03T09:04:31;102899.53;;;5.10;82.99
38630;BME280;24384;51.988;4.644;2023-03-03T09:06:57;102884.50;;;5.01;82.24
38630;BME280;24384;51.988;4.644;2023-03-03T09:09:22;102890.03;;;5.15;82.63
38630;BME280;24384;51.988;4.644;2023-03-03T09:11:47;102891.13;;;5.26;81.71
38630;BME280;24384;51.988;4.644;2023-03-03T09:14:13;102898.22;;;5.30;81.99
38630;BME280;24384;51.988;4.644;2023-03-03T09:16:40;102892.13;;;5.31;81.40
38630;BME280;24384;51.988;4.644;2023-03-03T09:19:14;102884.19;;;5.28;81.47
38630;BME280;24384;51.988;4.644;2023-03-03T09:21:40;102891.38;;;5.37;81.27
38630;BME280;24384;51.988;4.644;2023-03-03T09:24:09;102892.19;;;5.34;81.50
38630;BME280;24384;51.988;4.644;2023-03-03T09:26:44;102884.84;;;5.59;81.37
38630;BME280;24384;51.988;4.644;2023-03-03T09:31:37;102890.88;;;5.99;80.84
38630;BME280;24384;51.988;4.644;2023-03-03T09:34:09;102887.63;;;6.11;78.76
38630;BME280;24384;51.988;4.644;2023-03-03T09:36:36;102892.22;;;6.23;77.44
38630;BME280;24384;51.988;4.644;2023-03-03T09:39:11;102899.69;;;6.01;78.19
38630;BME280;24384;51.988;4.644;2023-03-03T09:41:58;102890.56;;;6.28;78.42
38630;BME280;24384;51.988;4.644;2023-03-03T09:44:47;102887.56;;;6.57;77.14
38630;BME280;24384;51.988;4.644;2023-03-03T09:54:42;102891.25;;;7.29;73.05
38630;BME280;24384;51.988;4.644;2023-03-03T09:57:13;102892.34;;;7.48;71.97
38630;BME280;24384;51.988;4.644;2023-03-03T09:59:46;102896.78;;;7.52;72.86
38630;BME280;24384;51.988;4.644;2023-03-03T10:04:41;102880.69;;;9.07;68.36
38630;BME280;24384;51.988;4.644;2023-03-03T10:09:46;102884.66;;;10.44;64.48
38630;BME280;24384;51.988;4.644;2023-03-03T10:14:49;102875.78;;;11.06;59.30
38630;BME280;24384;51.988;4.644;2023-03-03T10:20:04;102875.63;;;11.48;58.03
38630;BME280;24384;51.988;4.644;2023-03-03T10:22:33;102873.75;;;11.73;56.87
38630;BME280;24384;51.988;4.644;2023-03-03T10:25:16;102867.59;;;11.74;57.62
38630;BME280;24384;51.988;4.644;2023-03-03T10:30:20;102871.75;;;12.14;54.91
38630;BME280;24384;51.988;4.644;2023-03-03T10:35:22;102864.00;;;12.93;54.36
38630;BME280;24384;51.988;4.644;2023-03-03T10:43:07;102869.31;;;13.68;51.95
38630;BME280;24384;51.988;4.644;2023-03-03T10:45:42;102866.53;;;14.35;48.28
38630;BME280;24384;51.988;4.644;2023-03-03T10:48:18;102867.25;;;14.96;48.80
38630;BME280;24384;51.988;4.644;2023-03-03T10:58:45;102855.41;;;17.00;43.92
38630;BME280;24384;51.988;4.644;2023-03-03T11:01:17;102862.25;;;17.40;41.57
38630;BME280;24384;51.988;4.644;2023-03-03T11:03:55;102857.97;;;18.21;38.63
38630;BME280;24384;51.988;4.644;2023-03-03T11:11:58;102843.06;;;20.50;35.28
38630;BME280;24384;51.988;4.644;2023-03-03T11:14:27;102836.03;;;20.89;31.39
38630;BME280;24384;51.988;4.644;2023-03-03T11:27:24;102826.47;;;24.43;26.04
38630;BME280;24384;51.988;4.644;2023-03-03T11:32:20;102827.69;;;25.94;25.48
38630;BME280;24384;51.988;4.644;2023-03-03T11:39:46;102819.63;;;27.48;22.85
38630;BME280;24384;51.988;4.644;2023-03-03T11:47:45;102806.19;;;27.71;22.53
38630;BME280;24384;51.988;4.644;2023-03-03T11:50:15;102795.34;;;29.44;20.28
38630;BME280;24384;51.988;4.644;2023-03-03T12:05:40;102785.44;;;29.54;21.59
38630;BME280;24384;51.988;4.644;2023-03-03T12:08:18;102786.72;;;30.04;20.41
38630;BME280;24384;51.988;4.644;2023-03-03T12:13:20;102777.03;;;31.34;19.49
38630;BME280;24384;51.988;4.644;2023-03-03T12:15:50;102778.91;;;31.44;18.15
38630;BME280;24384;51.988;4.644;2023-03-03T12:18:25;102781.50;;;29.79;20.87
38630;BME280;24384;51.988;4.644;2023-03-03T12:21:12;102769.28;;;29.85;18.68
38630;BME280;24384;51.988;4.644;2023-03-03T12:26:33;102774.66;;;24.52;26.13
38630;BME280;24384;51.988;4.644;2023-03-03T12:37:05;102793.72;;;17.12;34.08
38630;BME280;24384;51.988;4.644;2023-03-03T12:42:24;102807.22;;;15.29;36.96
38630;BME280;24384;51.988;4.644;2023-03-03T12:47:30;102811.31;;;14.04;40.00
38630;BME280;24384;51.988;4.644;2023-03-03T12:55:10;102808.25;;;13.04;40.92
38630;BME280;24384;51.988;4.644;2023-03-03T12:57:54;102804.94;;;12.85;41.94
38630;BME280;24384;51.988;4.644;2023-03-03T13:00:46;102802.56;;;12.60;44.10
38630;BME280;24384;51.988;4.644;2023-03-03T13:03:10;102798.09;;;12.65;43.46
38630;BME280;24384;51.988;4.644;2023-03-03T13:05:41;102798.81;;;12.80;41.72
38630;BME280;24384;51.988;4.644;2023-03-03T13:08:18;102805.69;;;12.98;41.59
38630;BME280;24384;51.988;4.644;2023-03-03T13:10:52;102800.56;;;12.84;40.84
38630;BME280;24384;51.988;4.644;2023-03-03T13:13:29;102795.56;;;12.56;41.48
38630;BME280;24384;51.988;4.644;2023-03-03T13:16:01;102788.81;;;13.05;41.43
38630;BME280;24384;51.988;4.644;2023-03-03T13:18:46;102788.13;;;14.17;38.59
38630;BME280;24384;51.988;4.644;2023-03-03T13:23:54;102769.28;;;17.28;40.89
38630;BME280;24384;51.988;4.644;2023-03-03T13:31:48;102779.13;;;16.63;33.02
38630;BME280;24384;51.988;4.644;2023-03-03T13:37:02;102783.13;;;14.48;37.25
38630;BME280;24384;51.988;4.644;2023-03-03T13:39:31;102778.66;;;14.00;39.72
38630;BME280;24384;51.988;4.644;2023-03-03T13:44:39;102787.88;;;13.11;39.69
38630;BME280;24384;51.988;4.644;2023-03-03T13:52:05;102779.88;;;12.38;41.11
38630;BME280;24384;51.988;4.644;2023-03-03T13:59:47;102770.78;;;12.60;44.33
38630;BME280;24384;51.988;4.644;2023-03-03T14:02:33;102771.00;;;12.40;43.74
38630;BME280;24384;51.988;4.644;2023-03-03T14:05:12;102774.69;;;12.25;44.58
38630;BME280;24384;51.988;4.644;2023-03-03T14:07:39;102773.81;;;12.20;44.87
38630;BME280;24384;51.988;4.644;2023-03-03T14:10:12;102777.28;;;12.30;46.37
38630;BME280;24384;51.988;4.644;2023-03-03T14:12:43;102764.94;;;12.27;44.40
38630;BME280;24384;51.988;4.644;2023-03-03T14:15:32;102771.19;;;12.20;44.26
38630;BME280;24384;51.988;4.644;2023-03-03T14:20:46;102774.25;;;11.63;46.30
38630;BME280;24384;51.988;4.644;2023-03-03T14:23:18;102777.03;;;11.35;46.70
38630;BME280;24384;51.988;4.644;2023-03-03T14:28:45;102771.03;;;11.07;47.03
38630;BME280;24384;51.988;4.644;2023-03-03T14:33:40;102775.44;;;11.09;46.94
38630;BME280;24384;51.988;4.644;2023-03-03T14:36:09;102772.75;;;11.19;45.62
38630;BME280;24384;51.988;4.644;2023-03-03T14:38:37;102779.88;;;10.90;47.70
38630;BME280;24384;51.988;4.644;2023-03-03T14:43:37;102769.31;;;10.90;47.72
38630;BME280;24384;51.988;4.644;2023-03-03T14:48:51;102769.47;;;10.52;49.22
38630;BME280;24384;51.988;4.644;2023-03-03T14:51:27;102766.84;;;10.44;49.16
38630;BME280;24384;51.988;4.644;2023-03-03T14:53:53;102774.78;;;10.33;49.32
38630;BME280;24384;51.988;4.644;2023-03-03T14:56:32;102769.50;;;10.33;48.70
38630;BME280;24384;51.988;4.644;2023-03-03T15:01:38;102766.84;;;10.04;49.09
38630;BME280;24384;51.988;4.644;2023-03-03T15:06:49;102765.94;;;10.00;49.25
38630;BME280;24384;51.988;4.644;2023-03-03T15:11:53;102763.31;;;9.91;50.38
38630;BME280;24384;51.988;4.644;2023-03-03T15:14:24;102765.06;;;10.00;49.15
38630;BME280;24384;51.988;4.644;2023-03-03T15:16:53;102756.28;;;10.06;48.91
38630;BME280;24384;51.988;4.644;2023-03-03T15:22:10;102756.28;;;9.93;50.27
38630;BME280;24384;51.988;4.644;2023-03-03T15:24:44;102758.94;;;9.96;49.67
38630;BME280;24384;51.988;4.644;2023-03-03T15:27:20;102753.66;;;9.84;49.87
38630;BME280;24384;51.988;4.644;2023-03-03T15:34:54;102743.09;;;9.61;50.72
38630;BME280;24384;51.988;4.644;2023-03-03T15:42:47;102739.56;;;9.57;50.38
38630;BME280;24384;51.988;4.644;2023-03-03T15:52:53;102737.78;;;9.35;50.73
38630;BME280;24384;51.988;4.644;2023-03-03T16:03:11;102743.03;;;9.28;51.87
38630;BME280;24384;51.988;4.644;2023-03-03T16:05:54;102733.34;;;9.21;51.29
38630;BME280;24384;51.988;4.644;2023-03-03T16:08:22;102736.81;;;9.14;52.07
38630;BME280;24384;51.988;4.644;2023-03-03T16:13:28;102749.00;;;8.87;50.34
38630;BME280;24384;51.988;4.644;2023-03-03T16:15:57;102749.03;;;8.93;51.01
38630;BME280;24384;51.988;4.644;2023-03-03T16:23:48;102754.19;;;8.72;51.27
38630;BME280;24384;51.988;4.644;2023-03-03T16:31:22;102755.13;;;8.85;51.42
38630;BME280;24384;51.988;4.644;2023-03-03T16:34:00;102755.09;;;8.75;51.37
38630;BME280;24384;51.988;4.644;2023-03-03T16:36:42;102754.25;;;8.80;51.86
38630;BME280;24384;51.988;4.644;2023-03-03T16:39:14;102751.63;;;8.84;51.32